Time;durP1;ratioP1;P1;durP2;ratioP2;P2;SDS_P1;SDS_P2;PMS_P1;PMS_P2;Temp;Humidity;BMP_temperature;BMP_pressure;BME280_temperature;BME280_humidity;BME280_pressure;Samples;Min_cycle;Max_cycle;Signal;HPM_P1;HPM_P2
2021/12/07 00:00:33;;;;;;;1.17;0.40;;;9.30;99.90;;;;;;5094892;28;20091;-73
2021/12/07 00:02:59;;;;;;;1.02;0.40;;;9.40;99.90;;;;;;5094689;28;20061;-72
2021/12/07 00:05:25;;;;;;;1.10;0.40;;;9.40;99.90;;;;;;5094599;28;20035;-72
2021/12/07 00:07:52;;;;;;;2.78;0.47;;;9.40;99.90;;;;;;5094303;28;20032;-72
2021/12/07 00:10:18;;;;;;;1.63;0.55;;;9.30;99.90;;;;;;5093024;28;20036;-72
2021/12/07 00:12:46;;;;;;;2.83;0.50;;;9.30;99.90;;;;;;5092935;28;20113;-72
2021/12/07 00:15:16;;;;;;;4.78;1.10;;;9.40;99.90;;;;;;5094394;28;20031;-73
2021/12/07 00:17:43;;;;;;;1.13;0.30;;;9.30;99.90;;;;;;5094392;28;20464;-73
2021/12/07 00:20:16;;;;;;;2.08;0.95;;;9.40;99.90;;;;;;5094856;28;20365;-73
2021/12/07 00:22:47;;;;;;;3.00;0.90;;;9.40;99.90;;;;;;5094580;28;20527;-73
2021/12/07 00:25:14;;;;;;;2.22;0.60;;;9.30;99.90;;;;;;5094586;28;20028;-73
2021/12/07 00:27:40;;;;;;;1.95;0.68;;;9.30;99.90;;;;;;5094136;28;20074;-73
2021/12/07 00:30:09;;;;;;;3.27;0.70;;;9.40;99.90;;;;;;5094402;28;20039;-73
2021/12/07 00:32:41;;;;;;;1.42;0.40;;;9.30;99.90;;;;;;5093951;28;20374;-73
2021/12/07 00:37:40;;;;;;;1.73;0.50;;;9.30;99.90;;;;;;5093780;28;20048;-73
2021/12/07 00:40:09;;;;;;;1.27;0.50;;;9.30;99.90;;;;;;5093949;28;20024;-73
2021/12/07 00:42:36;;;;;;;1.80;0.60;;;9.40;99.90;;;;;;5094071;28;20024;-72
2021/12/07 00:45:04;;;;;;;1.92;0.60;;;9.40;99.90;;;;;;5093811;28;20517;-73
2021/12/07 00:47:30;;;;;;;1.63;0.57;;;9.40;99.90;;;;;;5093637;28;20028;-73
2021/12/07 00:49:56;;;;;;;3.35;0.40;;;9.40;99.90;;;;;;5094055;28;20032;-73
2021/12/07 00:52:23;;;;;;;1.73;0.60;;;9.40;99.90;;;;;;5093861;28;20097;-73
2021/12/07 00:54:49;;;;;;;2.42;0.50;;;9.30;99.90;;;;;;5094106;28;20078;-73
2021/12/07 00:57:15;;;;;;;2.85;0.50;;;9.30;99.90;;;;;;5094008;28;20024;-72
2021/12/07 00:59:42;;;;;;;2.10;0.50;;;9.20;99.90;;;;;;5094443;28;20028;-73
2021/12/07 01:02:08;;;;;;;3.20;0.50;;;9.30;99.90;;;;;;5093878;28;20461;-72
2021/12/07 01:04:35;;;;;;;1.80;0.43;;;9.30;99.90;;;;;;5093365;28;20036;-70
2021/12/07 01:07:11;;;;;;;0.98;0.40;;;9.40;99.90;;;;;;5093350;28;20020;-73
2021/12/07 01:24:40;;;;;;;2.55;0.60;;;9.40;99.90;;;;;;5093224;28;20032;-73
2021/12/07 01:26:19;;;;;;;1.58;0.50;;;9.50;99.90;;;;;;5093420;28;20035;-73
2021/12/07 01:28:46;;;;;;;1.27;0.40;;;9.50;99.90;;;;;;5093218;28;20030;-72
2021/12/07 01:31:25;;;;;;;1.08;0.57;;;9.60;99.90;;;;;;5093702;28;20067;-74
2021/12/07 01:59:53;;;;;;;1.95;0.40;;;9.60;99.90;;;;;;5089816;28;20039;-68
2021/12/07 02:02:22;;;;;;;0.40;0.40;;;9.60;99.90;;;;;;5090952;28;20035;-72
2021/12/07 02:04:49;;;;;;;0.30;0.30;;;9.60;99.90;;;;;;5090126;28;20089;-69
2021/12/07 02:07:15;;;;;;;1.40;0.32;;;9.50;99.90;;;;;;5091939;28;20384;-72
2021/12/07 02:09:47;;;;;;;0.80;0.40;;;9.50;99.90;;;;;;5092208;28;20036;-74
2021/12/07 02:12:14;;;;;;;0.70;0.45;;;9.50;99.90;;;;;;5092245;28;20016;-72
2021/12/07 02:14:41;;;;;;;0.88;0.40;;;9.50;99.90;;;;;;5091625;28;20099;-73
2021/12/07 02:17:13;;;;;;;0.73;0.38;;;9.50;99.90;;;;;;5091896;28;20413;-72
2021/12/07 02:19:41;;;;;;;0.73;0.32;;;9.50;99.90;;;;;;5092736;28;20024;-74
2021/12/07 02:22:09;;;;;;;1.85;0.45;;;9.60;99.90;;;;;;5091849;28;20016;-73
2021/12/07 02:24:36;;;;;;;0.60;0.40;;;9.50;99.90;;;;;;5092214;28;20020;-75
2021/12/07 02:27:03;;;;;;;0.30;0.30;;;9.40;99.90;;;;;;5091891;28;20050;-73
2021/12/07 02:29:29;;;;;;;;;;;9.40;99.90;;;;;;5092290;28;20028;-74
2021/12/07 02:31:57;;;;;;;0.80;0.40;;;9.50;99.90;;;;;;5091898;28;19904;-72
2021/12/07 02:34:25;;;;;;;0.77;0.38;;;9.40;99.90;;;;;;5091727;28;20035;-72
2021/12/07 02:36:52;;;;;;;0.45;0.30;;;9.40;99.90;;;;;;5091508;28;20093;-73
2021/12/07 02:39:27;;;;;;;0.47;0.30;;;9.40;99.90;;;;;;5091797;28;20032;-73
2021/12/07 02:41:53;;;;;;;0.32;0.30;;;9.40;99.90;;;;;;5092174;28;20460;-72
2021/12/07 02:44:19;;;;;;;0.77;0.40;;;9.40;99.90;;;;;;5092124;28;20024;-70
2021/12/07 02:46:46;;;;;;;2.58;1.35;;;9.30;99.90;;;;;;5091572;28;20020;-73
2021/12/07 02:49:12;;;;;;;0.65;0.30;;;9.30;99.90;;;;;;5092027;28;20124;-73
2021/12/07 02:51:38;;;;;;;0.95;0.30;;;9.20;99.90;;;;;;5091623;28;20024;-73
2021/12/07 02:54:06;;;;;;;1.20;0.30;;;9.30;99.90;;;;;;5090559;28;20489;-77
2021/12/07 02:56:35;;;;;;;0.40;0.30;;;9.20;99.90;;;;;;5091862;28;20039;-74
2021/12/07 02:59:04;;;;;;;0.45;0.30;;;9.20;99.90;;;;;;5091880;28;20059;-73
2021/12/07 03:01:36;;;;;;;2.08;0.38;;;9.10;99.90;;;;;;5090869;28;20043;-74
2021/12/07 03:04:13;;;;;;;0.75;0.40;;;9.10;99.90;;;;;;5091818;28;20472;-73
2021/12/07 03:06:58;;;;;;;1.48;0.50;;;9.10;99.90;;;;;;5091957;28;20111;-74
2021/12/07 03:26:06;;;;;;;4.65;1.13;;;9.50;99.90;;;;;;5090838;28;20030;-73
2021/12/07 03:28:37;;;;;;;7.00;1.08;;;9.50;99.90;;;;;;5094275;28;20035;-74
2021/12/07 03:31:04;;;;;;;5.55;1.17;;;9.60;99.90;;;;;;5093694;28;20051;-73
2021/12/07 03:33:30;;;;;;;5.95;1.13;;;9.60;99.90;;;;;;5095408;28;20360;-72
2021/12/07 03:35:56;;;;;;;4.90;0.93;;;9.50;99.90;;;;;;5095187;28;20035;-74
2021/12/07 03:38:22;;;;;;;3.23;0.93;;;9.50;99.90;;;;;;5095482;28;20119;-74
2021/12/07 03:40:50;;;;;;;2.83;0.77;;;9.50;99.90;;;;;;5095610;28;20020;-73
2021/12/07 03:43:16;;;;;;;1.95;0.75;;;9.50;99.90;;;;;;5095498;28;20028;-73
2021/12/07 03:45:43;;;;;;;4.07;0.60;;;9.50;99.90;;;;;;5095437;28;20094;-73
2021/12/07 03:48:11;;;;;;;2.95;0.77;;;9.40;99.90;;;;;;5095633;28;20039;-73
2021/12/07 03:50:38;;;;;;;4.38;0.70;;;9.40;99.90;;;;;;5094995;28;20111;-73
2021/12/07 03:53:05;;;;;;;4.10;1.00;;;9.40;99.90;;;;;;5094943;28;20471;-72
2021/12/07 03:55:32;;;;;;;6.68;1.25;;;9.40;99.90;;;;;;5095690;28;20425;-73
2021/12/07 03:57:58;;;;;;;3.03;0.90;;;9.40;99.90;;;;;;5095299;28;20028;-72
2021/12/07 04:00:27;;;;;;;2.17;0.60;;;9.40;99.90;;;;;;5095592;28;20099;-73
2021/12/07 04:03:07;;;;;;;4.32;1.05;;;9.40;99.90;;;;;;5095635;28;20048;-68
2021/12/07 04:05:45;;;;;;;5.05;1.00;;;9.30;99.90;;;;;;5094878;28;20029;-68
2021/12/07 04:09:13;;;;;;;2.75;0.90;;;9.40;99.90;;;;;;5095374;28;20414;-68
2021/12/07 04:12:44;;;;;;;3.90;1.00;;;9.40;99.90;;;;;;5095184;28;20131;-69
2021/12/07 04:15:15;;;;;;;6.85;1.30;;;9.50;99.90;;;;;;5095079;28;20020;-73
2021/12/07 04:17:42;;;;;;;3.00;1.00;;;9.50;99.90;;;;;;5095481;28;20023;-73
2021/12/07 04:20:09;;;;;;;;;;;9.50;99.90;;;;;;5095579;28;20025;-73
2021/12/07 04:22:35;;;;;;;5.88;1.42;;;9.60;99.90;;;;;;5095096;28;20336;-72
2021/12/07 04:25:03;;;;;;;2.75;0.80;;;9.70;99.90;;;;;;5095711;28;20070;-73
2021/12/07 04:27:34;;;;;;;5.93;1.00;;;9.70;99.90;;;;;;5094693;28;20047;-73
2021/12/07 04:30:01;;;;;;;5.90;1.00;;;9.70;99.90;;;;;;5094897;28;20032;-73
2021/12/07 04:32:27;;;;;;;5.57;1.15;;;9.70;99.90;;;;;;5095144;28;20028;-73
2021/12/07 04:34:54;;;;;;;3.77;0.97;;;9.80;99.90;;;;;;5094940;28;20032;-74
2021/12/07 04:37:22;;;;;;;5.03;1.00;;;9.80;99.90;;;;;;5092892;28;20055;-73
2021/12/07 04:39:48;;;;;;;5.60;1.30;;;9.70;99.90;;;;;;5094141;28;20081;-72
2021/12/07 04:42:15;;;;;;;8.73;1.37;;;9.70;99.90;;;;;;5093523;28;20055;-72
2021/12/07 04:44:50;;;;;;;6.78;1.25;;;9.70;99.90;;;;;;5094617;28;20341;-72
2021/12/07 04:47:23;;;;;;;3.70;1.00;;;9.60;99.90;;;;;;5094906;28;20111;-73
2021/12/07 04:58:04;;;;;;;5.63;0.98;;;9.70;99.90;;;;;;5060242;28;20124;-73
2021/12/07 05:00:34;;;;;;;5.07;0.85;;;9.80;99.90;;;;;;5094417;28;20023;-74
2021/12/07 05:03:04;;;;;;;5.85;1.30;;;9.80;99.90;;;;;;5094370;28;20486;-73
2021/12/07 05:05:40;;;;;;;5.72;1.20;;;9.70;99.90;;;;;;5092527;28;20049;-73
2021/12/07 05:08:10;;;;;;;5.13;1.08;;;9.60;99.90;;;;;;5094948;28;20032;-73
2021/12/07 05:24:05;;;;;;;3.30;1.10;;;9.40;99.90;;;;;;5049128;28;20045;-72
2021/12/07 05:37:50;;;;;;;5.38;1.20;;;9.30;99.90;;;;;;5094024;28;20511;-72
2021/12/07 05:40:20;;;;;;;3.97;1.23;;;9.30;99.90;;;;;;5093994;28;20046;-73
2021/12/07 05:42:47;;;;;;;2.72;0.88;;;9.30;99.90;;;;;;5093993;28;20380;-73
2021/12/07 05:45:20;;;;;;;7.30;1.10;;;9.40;99.90;;;;;;5093293;28;20024;-73
2021/12/07 05:47:47;;;;;;;6.93;1.00;;;9.30;99.90;;;;;;5091758;28;20070;-73
2021/12/07 05:50:16;;;;;;;;;;;9.40;99.90;;;;;;5093914;28;20047;-73
2021/12/07 05:52:42;;;;;;;6.93;1.20;;;9.40;99.90;;;;;;5094034;28;19904;-73
2021/12/07 05:55:09;;;;;;;10.37;1.20;;;9.40;99.90;;;;;;5094548;28;20018;-73
2021/12/07 05:57:36;;;;;;;6.70;1.40;;;9.30;99.90;;;;;;5093661;28;20028;-72
2021/12/07 06:00:09;;;;;;;8.40;1.55;;;9.30;99.90;;;;;;5092356;28;20033;-73
2021/12/07 06:02:36;;;;;;;9.38;1.13;;;9.40;99.90;;;;;;5093973;28;20101;-74
2021/12/07 06:05:03;;;;;;;8.40;1.20;;;9.50;99.90;;;;;;5093935;28;20521;-73
2021/12/07 06:07:29;;;;;;;8.93;1.27;;;9.50;99.90;;;;;;5093531;28;20154;-73
2021/12/07 06:09:56;;;;;;;6.65;1.20;;;9.60;99.90;;;;;;5093227;28;20036;-73
2021/12/07 06:12:22;;;;;;;9.73;1.60;;;9.60;99.90;;;;;;5091914;28;20024;-73
2021/12/07 06:14:48;;;;;;;8.90;1.65;;;9.60;99.90;;;;;;5093651;28;20028;-74
2021/12/07 06:17:16;;;;;;;6.50;0.98;;;9.60;99.90;;;;;;5093612;28;20032;-72
2021/12/07 06:19:42;;;;;;;6.72;1.00;;;9.60;99.90;;;;;;5092554;28;20176;-73
2021/12/07 06:22:09;;;;;;;4.32;0.90;;;9.70;99.90;;;;;;5093779;28;20047;-73
2021/12/07 06:24:36;;;;;;;6.37;1.20;;;9.70;99.90;;;;;;5093652;28;20476;-73
2021/12/07 06:27:04;;;;;;;9.07;1.63;;;9.80;99.90;;;;;;5091500;28;20032;-75
2021/12/07 06:29:32;;;;;;;8.35;1.15;;;10.10;99.90;;;;;;5092806;28;20032;-74
2021/12/07 06:32:01;;;;;;;5.35;1.40;;;10.30;99.90;;;;;;5092930;28;20065;-74
2021/12/07 06:34:28;;;;;;;11.43;1.33;;;10.70;99.90;;;;;;5093354;28;20027;-74
2021/12/07 06:36:54;;;;;;;7.30;1.35;;;11.20;99.90;;;;;;5092685;28;20040;-75
2021/12/07 06:39:22;;;;;;;11.13;1.33;;;11.70;99.90;;;;;;5093100;28;20016;-73
2021/12/07 06:41:48;;;;;;;6.63;1.35;;;12.00;99.90;;;;;;5074407;28;20123;-74
2021/12/07 06:44:15;;;;;;;5.47;1.48;;;12.70;99.90;;;;;;5092557;28;20121;-74
2021/12/07 06:46:41;;;;;;;9.48;1.58;;;13.30;99.90;;;;;;5092234;28;20379;-74
2021/12/07 06:49:07;;;;;;;4.28;1.20;;;13.90;98.20;;;;;;5092695;28;20032;-73
2021/12/07 06:51:33;;;;;;;4.93;1.00;;;14.40;97.10;;;;;;5092129;28;20081;-75
2021/12/07 06:53:59;;;;;;;4.90;1.03;;;14.40;96.50;;;;;;5091379;28;20731;-75
2021/12/07 06:56:28;;;;;;;5.93;1.13;;;14.70;96.60;;;;;;5091687;28;20722;-74
2021/12/07 06:58:55;;;;;;;8.63;1.83;;;15.00;96.20;;;;;;5090472;28;20464;-74
2021/12/07 07:01:21;;;;;;;7.57;1.30;;;14.80;96.30;;;;;;5092223;28;20028;-75
2021/12/07 07:03:48;;;;;;;7.15;1.60;;;14.80;96.90;;;;;;5096272;28;20028;-76
2021/12/07 07:06:14;;;;;;;3.78;1.10;;;14.60;96.70;;;;;;5095957;28;20028;-75
2021/12/07 07:08:40;;;;;;;9.30;1.20;;;14.10;97.70;;;;;;5096018;28;20028;-76
2021/12/07 07:11:08;;;;;;;6.82;1.40;;;13.30;99.20;;;;;;5095075;28;20081;-77
2021/12/07 07:13:34;;;;;;;4.35;1.08;;;13.30;99.40;;;;;;5096319;28;20035;-74
2021/12/07 07:16:02;;;;;;;6.32;1.20;;;13.80;99.40;;;;;;5096202;28;20484;-74
2021/12/07 07:18:30;;;;;;;4.65;1.00;;;14.60;99.90;;;;;;5096365;28;20027;-75
2021/12/07 07:20:56;;;;;;;5.53;1.27;;;15.50;96.70;;;;;;5095409;28;20062;-75
2021/12/07 07:23:24;;;;;;;3.58;0.80;;;16.20;96.70;;;;;;5096810;28;20027;-74
2021/12/07 07:25:50;;;;;;;5.82;1.20;;;15.80;95.50;;;;;;5095029;28;20065;-75
2021/12/07 07:28:16;;;;;;;;;;;14.80;96.90;;;;;;5095782;28;20035;-75
2021/12/07 07:30:43;;;;;;;5.38;1.27;;;14.20;98.10;;;;;;5111943;28;19912;-75
2021/12/07 07:33:09;;;;;;;8.13;1.27;;;13.80;98.40;;;;;;5096952;28;20087;-75
2021/12/07 07:35:35;;;;;;;5.25;1.00;;;13.40;99.60;;;;;;5096579;28;20032;-75
2021/12/07 07:38:01;;;;;;;3.13;1.00;;;13.40;99.30;;;;;;5097026;28;20074;-75
2021/12/07 07:40:29;;;;;;;7.25;1.20;;;13.10;99.80;;;;;;5096054;28;20265;-72
2021/12/07 07:42:55;;;;;;;5.95;1.50;;;13.10;99.90;;;;;;5096141;28;20101;-75
2021/12/07 07:45:21;;;;;;;3.63;0.90;;;13.20;99.90;;;;;;5094560;28;20021;-74
2021/12/07 07:47:47;;;;;;;5.23;1.37;;;13.30;99.90;;;;;;5096100;28;20031;-74
2021/12/07 07:50:14;;;;;;;4.77;1.00;;;13.50;99.90;;;;;;5095831;28;20040;-75
2021/12/07 07:52:41;;;;;;;6.10;1.17;;;13.60;99.40;;;;;;5094730;28;20266;-73
2021/12/07 07:55:08;;;;;;;6.75;0.98;;;13.60;99.50;;;;;;5094280;28;20070;-73
2021/12/07 07:57:34;;;;;;;6.40;1.33;;;13.10;99.10;;;;;;5094663;28;20123;-72
2021/12/07 08:00:00;;;;;;;7.97;1.20;;;13.10;99.90;;;;;;5095827;28;20464;-73
2021/12/07 08:02:28;;;;;;;5.72;1.25;;;13.10;99.90;;;;;;5094301;28;20070;-73
2021/12/07 08:04:55;;;;;;;5.78;1.23;;;13.40;99.70;;;;;;5094153;28;20028;-76
2021/12/07 08:07:21;;;;;;;7.00;1.60;;;13.40;99.40;;;;;;5095599;28;20043;-76
2021/12/07 08:09:48;;;;;;;6.80;1.57;;;13.50;99.40;;;;;;5095906;28;20032;-73
2021/12/07 08:12:14;;;;;;;;;;;13.50;99.10;;;;;;5095638;28;20031;-73
2021/12/07 08:14:40;;;;;;;4.70;1.20;;;13.60;99.10;;;;;;5095095;28;19903;-73
2021/12/07 08:17:06;;;;;;;6.00;0.87;;;13.40;98.40;;;;;;5095074;28;20289;-72
2021/12/07 08:19:33;;;;;;;4.25;0.90;;;13.30;98.60;;;;;;5094549;28;20481;-74
2021/12/07 08:21:59;;;;;;;3.95;0.90;;;13.40;98.90;;;;;;5095122;28;20561;-72
2021/12/07 08:24:25;;;;;;;8.10;1.40;;;13.60;98.60;;;;;;5095766;28;20020;-72
2021/12/07 08:26:51;;;;;;;8.68;1.23;;;13.70;98.40;;;;;;5095217;28;20060;-73
2021/12/07 08:29:20;;;;;;;7.05;1.40;;;13.70;98.10;;;;;;5092892;28;20495;-74
2021/12/07 08:31:46;;;;;;;8.35;1.30;;;13.70;98.20;;;;;;5094115;28;20082;-73
2021/12/07 08:34:12;;;;;;;4.93;1.15;;;13.90;98.00;;;;;;5095573;28;20016;-73
2021/12/07 08:36:41;;;;;;;10.20;1.77;;;13.60;98.30;;;;;;5094746;28;20090;-74
2021/12/07 08:39:08;;;;;;;7.55;1.58;;;13.70;98.10;;;;;;5093740;28;20020;-74
2021/12/07 08:41:37;;;;;;;6.63;1.60;;;13.80;98.40;;;;;;5093615;28;20051;-74
2021/12/07 08:44:06;;;;;;;12.73;1.93;;;14.00;98.20;;;;;;5093514;28;20388;-74
2021/12/07 08:46:33;;;;;;;9.25;1.98;;;14.00;98.60;;;;;;5094876;28;20349;-74
2021/12/07 08:48:59;;;;;;;8.13;1.60;;;14.00;98.30;;;;;;5092683;28;20460;-74
2021/12/07 08:51:25;;;;;;;5.37;1.73;;;14.00;97.90;;;;;;5094331;28;20412;-75
2021/12/07 08:54:16;;;;;;;10.50;1.20;;;14.00;97.40;;;;;;5094409;28;20269;-75
2021/12/07 08:59:40;;;;;;;10.20;1.70;;;14.00;97.20;;;;;;5094334;28;20081;-74
2021/12/07 09:02:07;;;;;;;7.40;1.33;;;14.00;96.30;;;;;;5094264;28;20140;-75
2021/12/07 09:04:34;;;;;;;9.02;2.05;;;14.00;96.20;;;;;;5092226;28;20392;-75
2021/12/07 09:07:00;;;;;;;7.80;1.95;;;13.90;96.70;;;;;;5093960;28;20028;-76
2021/12/07 09:09:28;;;;;;;8.60;1.70;;;14.00;96.70;;;;;;5094381;28;20081;-76
2021/12/07 09:11:55;;;;;;;7.10;1.58;;;13.80;96.50;;;;;;5092560;28;20524;-78
2021/12/07 09:14:22;;;;;;;7.50;1.67;;;14.00;96.00;;;;;;5094584;28;20415;-75
2021/12/07 09:16:49;;;;;;;6.03;1.58;;;14.10;95.30;;;;;;5094317;28;20376;-75
2021/12/07 09:19:16;;;;;;;8.50;1.27;;;14.10;95.70;;;;;;5094192;28;20028;-75
2021/12/07 09:21:43;;;;;;;5.70;1.15;;;14.20;95.40;;;;;;5094520;28;20425;-74
2021/12/07 09:24:09;;;;;;;6.93;1.25;;;14.10;94.40;;;;;;5091974;28;20032;-74
2021/12/07 09:26:36;;;;;;;4.90;1.15;;;14.20;94.80;;;;;;5092474;28;20024;-75
2021/12/07 09:29:04;;;;;;;103.70;7.32;;;14.20;94.50;;;;;;5109282;28;20024;-75
2021/12/07 09:31:30;;;;;;;8.93;1.55;;;14.20;95.40;;;;;;5092466;28;20032;-75
2021/12/07 09:33:57;;;;;;;7.18;1.48;;;14.40;94.20;;;;;;5092354;28;20038;-71
2021/12/07 09:36:25;;;;;;;10.20;1.65;;;14.50;95.00;;;;;;5093407;28;20050;-74
2021/12/07 09:38:52;;;;;;;10.60;1.58;;;14.40;94.80;;;;;;5092212;28;20032;-73
2021/12/07 09:41:20;;;;;;;8.95;1.40;;;14.40;95.50;;;;;;5093367;28;20085;-74
2021/12/07 09:43:46;;;;;;;7.55;1.48;;;14.50;96.00;;;;;;5093580;28;20059;-72
2021/12/07 09:46:13;;;;;;;11.07;1.27;;;14.70;95.50;;;;;;5093765;28;20024;-74
2021/12/07 09:48:41;;;;;;;10.07;1.70;;;14.60;95.10;;;;;;5090886;28;20047;-75
2021/12/07 09:51:11;;;;;;;11.75;1.75;;;14.60;95.70;;;;;;5092126;28;20483;-74
2021/12/07 09:53:37;;;;;;;6.38;1.50;;;14.50;95.90;;;;;;5092821;28;20024;-73
2021/12/07 09:56:06;;;;;;;5.13;1.52;;;14.50;96.50;;;;;;5090812;28;20081;-73
2021/12/07 09:58:32;;;;;;;7.10;1.73;;;14.50;96.20;;;;;;5092473;28;20032;-73
2021/12/07 10:00:59;;;;;;;6.30;1.00;;;14.60;96.60;;;;;;5091994;28;20103;-72
2021/12/07 10:03:25;;;;;;;7.88;1.35;;;14.70;95.70;;;;;;5090706;28;20028;-73
2021/12/07 10:05:52;;;;;;;8.90;1.58;;;14.80;96.30;;;;;;5092167;28;20018;-73
2021/12/07 10:08:20;;;;;;;;;;;14.80;96.80;;;;;;5092739;28;20039;-74
2021/12/07 10:10:51;;;;;;;7.40;1.80;;;14.90;95.60;;;;;;5091914;28;20006;-74
2021/12/07 10:13:17;;;;;;;5.63;1.30;;;14.80;95.20;;;;;;5091334;28;20024;-73
2021/12/07 10:15:44;;;;;;;6.07;1.20;;;14.80;95.70;;;;;;5092635;28;20082;-75
2021/12/07 10:18:12;;;;;;;9.50;1.38;;;14.50;95.20;;;;;;5092930;28;20465;-74
2021/12/07 10:20:42;;;;;;;6.38;1.20;;;14.50;95.60;;;;;;5092806;28;20485;-74
2021/12/07 10:23:17;;;;;;;7.28;1.13;;;14.40;95.40;;;;;;5092327;28;20028;-71
2021/12/07 10:25:55;;;;;;;6.50;1.00;;;14.10;95.80;;;;;;5092748;28;20491;-73
2021/12/07 10:28:33;;;;;;;12.25;2.28;;;14.20;96.70;;;;;;5091259;28;20039;-73
2021/12/07 10:31:16;;;;;;;7.18;1.70;;;14.20;96.00;;;;;;5091009;28;20044;-73
2021/12/07 10:33:44;;;;;;;6.85;1.13;;;14.50;96.30;;;;;;5091147;28;20040;-75
2021/12/07 10:36:18;;;;;;;6.63;1.40;;;14.70;96.20;;;;;;5091474;28;20117;-75
2021/12/07 10:38:58;;;;;;;5.47;1.33;;;14.90;96.00;;;;;;5092850;28;20039;-76
2021/12/07 10:41:26;;;;;;;5.10;1.20;;;14.90;95.50;;;;;;5092704;28;20024;-73
2021/12/07 10:44:01;;;;;;;9.57;1.13;;;14.90;95.70;;;;;;5092247;28;20015;-73
2021/12/07 10:46:44;;;;;;;6.68;1.20;;;15.10;95.50;;;;;;5090954;28;20024;-72
2021/12/07 10:49:18;;;;;;;5.35;1.05;;;15.10;94.90;;;;;;5090982;28;20085;-75
2021/12/07 10:52:09;;;;;;;6.20;1.00;;;15.20;94.80;;;;;;5092399;28;20043;-74
2021/12/07 10:54:50;;;;;;;7.38;1.20;;;15.10;95.00;;;;;;5083263;28;20421;-74
2021/12/07 10:57:24;;;;;;;5.43;1.00;;;15.20;94.90;;;;;;5092398;28;20039;-74
2021/12/07 10:59:54;;;;;;;4.00;1.15;;;15.40;94.90;;;;;;5092540;28;20421;-72
2021/12/07 11:02:23;;;;;;;7.22;1.52;;;15.50;94.20;;;;;;5092056;28;20020;-74
2021/12/07 11:04:50;;;;;;;7.13;1.30;;;15.70;94.60;;;;;;5091654;28;20077;-72
2021/12/07 11:07:27;;;;;;;5.63;1.20;;;15.60;94.50;;;;;;5090280;28;20039;-71
2021/12/07 11:10:04;;;;;;;11.77;1.65;;;15.60;94.70;;;;;;5091484;28;20032;-74
2021/12/07 11:12:48;;;;;;;5.55;1.20;;;15.40;94.60;;;;;;5090096;28;20111;-72
2021/12/07 11:15:23;;;;;;;7.35;1.08;;;15.30;94.70;;;;;;5091960;28;20116;-72
2021/12/07 11:17:51;;;;;;;7.90;1.55;;;15.20;94.40;;;;;;5090958;28;20473;-73
2021/12/07 11:20:18;;;;;;;4.95;1.00;;;15.00;94.50;;;;;;5091676;28;20157;-72
2021/12/07 11:22:49;;;;;;;;;;;14.90;94.60;;;;;;5090516;28;20032;-73
2021/12/07 11:25:42;;;;;;;5.65;1.17;;;14.80;94.70;;;;;;5106825;28;20170;-71
2021/12/07 11:31:39;;;;;;;6.32;1.13;;;14.70;94.70;;;;;;5091256;28;20051;-72
2021/12/07 11:34:14;;;;;;;7.28;1.40;;;14.60;95.00;;;;;;5092149;28;20024;-72
2021/12/07 11:36:40;;;;;;;8.43;1.70;;;14.60;95.50;;;;;;5091232;28;20382;-72
2021/12/07 11:39:36;;;;;;;5.40;1.20;;;14.60;96.40;;;;;;5091845;28;20074;-71
2021/12/07 11:42:04;;;;;;;;;;;15.00;95.40;;;;;;5091662;28;20100;-72
2021/12/07 11:44:51;;;;;;;6.65;1.08;;;15.10;95.20;;;;;;5091556;28;19904;-72
2021/12/07 11:47:24;;;;;;;7.88;1.15;;;15.10;95.50;;;;;;5092578;28;20103;-72
2021/12/07 11:49:50;;;;;;;3.50;1.00;;;15.10;94.80;;;;;;5095128;28;20032;-72
2021/12/07 11:52:16;;;;;;;8.70;1.48;;;15.20;95.60;;;;;;5093497;28;20036;-73
2021/12/07 11:54:43;;;;;;;4.80;1.00;;;15.10;95.80;;;;;;5095667;28;20076;-73
2021/12/07 11:57:16;;;;;;;10.50;2.92;;;15.00;95.40;;;;;;5095199;28;20036;-74
2021/12/07 11:59:43;;;;;;;8.38;1.98;;;15.10;96.10;;;;;;5093526;28;20443;-73
2021/12/07 12:02:10;;;;;;;8.13;1.13;;;15.10;96.20;;;;;;5093953;28;20054;-72
2021/12/07 12:04:38;;;;;;;5.18;1.05;;;15.20;96.30;;;;;;5093445;28;20434;-71
2021/12/07 12:07:08;;;;;;;6.95;1.00;;;15.30;96.70;;;;;;5093501;28;20031;-73
2021/12/07 12:09:36;;;;;;;4.68;1.15;;;15.50;96.40;;;;;;5092379;28;20391;-73
2021/12/07 12:12:29;;;;;;;6.47;1.40;;;15.60;95.50;;;;;;5094205;28;20028;-73
2021/12/07 12:15:10;;;;;;;6.88;1.20;;;15.70;96.10;;;;;;5093931;28;20054;-73
2021/12/07 12:18:04;;;;;;;6.80;1.33;;;16.00;95.50;;;;;;5093708;28;20028;-72
2021/12/07 12:20:43;;;;;;;8.73;1.45;;;16.10;97.10;;;;;;5094399;28;20392;-74
2021/12/07 12:23:33;;;;;;;7.75;1.63;;;16.20;95.30;;;;;;5094293;28;20095;-74
2021/12/07 12:26:03;;;;;;;7.82;1.13;;;16.20;94.80;;;;;;5094061;28;20320;-73
2021/12/07 12:28:59;;;;;;;7.20;1.35;;;15.90;94.90;;;;;;5095079;28;20500;-72
2021/12/07 12:31:56;;;;;;;7.63;1.23;;;15.70;95.70;;;;;;5094733;28;20047;-73
2021/12/07 12:34:25;;;;;;;5.15;1.10;;;15.70;96.30;;;;;;5091884;28;20032;-74
2021/12/07 12:37:02;;;;;;;5.82;1.15;;;15.80;96.20;;;;;;5094306;28;20476;-73
2021/12/07 12:40:03;;;;;;;9.38;1.58;;;15.70;95.50;;;;;;5094859;28;20585;-72
2021/12/07 12:42:42;;;;;;;9.85;1.48;;;15.70;96.90;;;;;;5094865;28;20368;-74
2021/12/07 12:45:29;;;;;;;5.03;1.23;;;15.70;96.10;;;;;;5094783;28;20440;-74
2021/12/07 12:47:55;;;;;;;4.93;1.08;;;15.30;96.80;;;;;;5094801;28;20529;-72
2021/12/07 12:50:27;;;;;;;8.37;1.20;;;15.00;97.40;;;;;;5094408;28;20426;-74
2021/12/07 12:52:58;;;;;;;8.13;1.33;;;14.90;97.50;;;;;;5094450;28;20028;-75
2021/12/07 12:55:32;;;;;;;11.38;1.40;;;15.20;97.90;;;;;;5094733;28;20452;-75
2021/12/07 12:58:00;;;;;;;6.72;1.27;;;15.40;96.90;;;;;;5094087;28;20498;-73
2021/12/07 13:01:04;;;;;;;7.53;1.15;;;15.60;97.00;;;;;;5093037;28;20031;-73
2021/12/07 13:03:42;;;;;;;8.48;1.40;;;15.70;97.30;;;;;;5094627;28;20069;-74
2021/12/07 13:06:13;;;;;;;6.80;1.38;;;16.00;96.50;;;;;;5094601;28;20043;-73
2021/12/07 13:08:56;;;;;;;4.47;1.20;;;16.30;96.20;;;;;;5094893;28;20024;-73
2021/12/07 13:11:40;;;;;;;7.15;1.67;;;16.50;96.00;;;;;;5094675;28;20070;-74
2021/12/07 13:14:13;;;;;;;7.85;1.30;;;16.60;96.30;;;;;;5093996;28;20082;-73
2021/12/07 13:16:51;;;;;;;7.95;1.55;;;16.50;97.10;;;;;;5094741;28;20072;-74
2021/12/07 13:19:20;;;;;;;11.00;2.05;;;16.50;97.80;;;;;;5094760;28;20024;-74
2021/12/07 13:22:04;;;;;;;12.85;1.50;;;16.60;98.20;;;;;;5094143;28;20618;-73
2021/12/07 13:24:39;;;;;;;9.90;2.15;;;16.60;97.80;;;;;;5094920;28;20024;-73
2021/12/07 13:27:12;;;;;;;14.82;1.38;;;16.70;98.80;;;;;;5094390;28;20472;-75
2021/12/07 13:29:45;;;;;;;14.00;1.80;;;16.50;98.70;;;;;;5094814;28;20031;-74
2021/12/07 13:32:12;;;;;;;8.98;1.20;;;16.40;99.30;;;;;;5094415;28;20476;-74
2021/12/07 13:34:39;;;;;;;6.35;1.58;;;16.30;98.80;;;;;;5093950;28;20032;-74
2021/12/07 13:37:08;;;;;;;9.82;1.45;;;16.00;98.90;;;;;;5093927;28;20083;-74
2021/12/07 13:39:37;;;;;;;5.15;1.42;;;15.60;99.70;;;;;;5092846;28;20055;-75
2021/12/07 13:42:06;;;;;;;6.55;1.63;;;15.50;99.30;;;;;;5094325;28;20519;-74
2021/12/07 13:44:52;;;;;;;6.32;1.55;;;15.50;99.90;;;;;;5093657;28;20043;-73
2021/12/07 13:47:43;;;;;;;6.82;1.77;;;15.30;99.90;;;;;;5092437;28;20055;-73
2021/12/07 13:50:31;;;;;;;7.05;1.88;;;14.90;99.90;;;;;;5094289;28;20027;-73
2021/12/07 13:52:58;;;;;;;8.77;1.83;;;14.90;99.90;;;;;;5093721;28;20032;-73
2021/12/07 13:55:30;;;;;;;6.97;1.70;;;14.90;99.90;;;;;;5093813;28;20487;-73
2021/12/07 13:58:00;;;;;;;6.88;1.80;;;14.80;99.90;;;;;;5092574;28;20089;-73
2021/12/07 14:00:29;;;;;;;7.85;1.88;;;14.70;99.90;;;;;;5093718;28;20059;-72
2021/12/07 14:03:00;;;;;;;7.13;1.70;;;14.90;99.90;;;;;;5093509;28;20020;-76
2021/12/07 14:05:31;;;;;;;5.78;1.40;;;15.10;99.90;;;;;;5093718;28;20071;-73
2021/12/07 14:08:01;;;;;;;9.60;2.20;;;15.20;99.90;;;;;;5093523;28;20120;-74
2021/12/07 14:10:32;;;;;;;9.95;1.85;;;15.40;99.90;;;;;;5092836;28;20047;-76
2021/12/07 14:13:01;;;;;;;12.57;2.45;;;15.10;99.90;;;;;;5093202;28;20100;-76
2021/12/07 14:15:35;;;;;;;10.55;2.53;;;15.00;99.90;;;;;;5093120;28;20032;-75
2021/12/07 14:18:11;;;;;;;11.75;2.78;;;15.10;99.90;;;;;;5093952;28;20020;-75
2021/12/07 14:20:44;;;;;;;10.07;2.92;;;15.30;99.90;;;;;;5092124;28;20415;-73
2021/12/07 14:23:24;;;;;;;12.10;2.67;;;15.30;99.90;;;;;;5092098;28;20028;-73
2021/12/07 14:26:01;;;;;;;10.48;2.17;;;15.40;99.90;;;;;;5093747;28;20027;-75
2021/12/07 14:28:40;;;;;;;13.40;2.58;;;15.70;99.90;;;;;;5093830;28;20178;-75
2021/12/07 14:31:26;;;;;;;10.10;2.00;;;15.70;99.90;;;;;;5093207;28;20131;-75
2021/12/07 14:34:00;;;;;;;9.80;1.98;;;15.60;99.90;;;;;;5093954;28;20409;-75
2021/12/07 14:36:32;;;;;;;11.27;1.98;;;15.70;99.90;;;;;;5093246;28;20048;-73
2021/12/07 14:39:03;;;;;;;7.05;1.42;;;15.70;99.90;;;;;;5093356;28;20035;-74
2021/12/07 14:41:29;;;;;;;12.38;1.67;;;15.70;99.90;;;;;;5093601;28;20028;-74
2021/12/07 14:43:58;;;;;;;7.22;1.80;;;15.80;99.90;;;;;;5092914;28;20059;-75
2021/12/07 14:46:26;;;;;;;11.55;1.85;;;15.70;99.90;;;;;;5074971;28;20102;-75